sensor_id;sensor_type;location;lat;lon;timestamp;pressure;altitude;pressure_sealevel;temperature;humidity
16525;BME280;8375;33.594;-117.718;2022-11-20T00:01:33;100454.28;;;20.87;15.10
16525;BME280;8375;33.594;-117.718;2022-11-20T00:04:02;100448.25;;;20.78;15.04
16525;BME280;8375;33.594;-117.718;2022-11-20T00:06:30;100459.84;;;20.69;15.89
16525;BME280;8375;33.594;-117.718;2022-11-20T00:09:00;100458.28;;;20.59;15.68
16525;BME280;8375;33.594;-117.718;2022-11-20T00:11:30;100459.69;;;20.47;15.74
16525;BME280;8375;33.594;-117.718;2022-11-20T00:14:00;100465.97;;;20.46;15.59
16525;BME280;8375;33.594;-117.718;2022-11-20T00:16:31;100457.13;;;20.38;15.44
16525;BME280;8375;33.594;-117.718;2022-11-20T00:19:02;100457.53;;;20.27;15.33
16525;BME280;8375;33.594;-117.718;2022-11-20T00:21:30;100461.06;;;20.19;15.52
16525;BME280;8375;33.594;-117.718;2022-11-20T00:23:59;100463.84;;;20.18;16.12
16525;BME280;8375;33.594;-117.718;2022-11-20T00:26:28;100458.69;;;20.01;15.92
16525;BME280;8375;33.594;-117.718;2022-11-20T00:28:59;100457.09;;;19.92;15.47
16525;BME280;8375;33.594;-117.718;2022-11-20T00:31:28;100459.91;;;19.90;15.93
16525;BME280;8375;33.594;-117.718;2022-11-20T00:33:57;100469.81;;;19.80;15.30
16525;BME280;8375;33.594;-117.718;2022-11-20T00:36:28;100466.72;;;19.68;15.94
16525;BME280;8375;33.594;-117.718;2022-11-20T00:38:57;100466.56;;;19.70;17.65
16525;BME280;8375;33.594;-117.718;2022-11-20T00:41:27;100459.22;;;19.57;16.75
16525;BME280;8375;33.594;-117.718;2022-11-20T00:43:56;100466.50;;;19.46;18.40
16525;BME280;8375;33.594;-117.718;2022-11-20T00:46:26;100470.44;;;19.42;16.99
16525;BME280;8375;33.594;-117.718;2022-11-20T00:48:56;100477.03;;;19.38;17.68
16525;BME280;8375;33.594;-117.718;2022-11-20T00:51:27;100472.63;;;19.39;18.19
16525;BME280;8375;33.594;-117.718;2022-11-20T00:53:56;100481.34;;;19.31;15.43
16525;BME280;8375;33.594;-117.718;2022-11-20T00:56:26;100485.31;;;19.27;16.63
16525;BME280;8375;33.594;-117.718;2022-11-20T00:58:54;100486.16;;;19.19;18.81
16525;BME280;8375;33.594;-117.718;2022-11-20T01:01:24;100489.28;;;19.06;17.88
16525;BME280;8375;33.594;-117.718;2022-11-20T01:03:54;100495.53;;;18.97;18.76
16525;BME280;8375;33.594;-117.718;2022-11-20T01:06:24;100494.53;;;18.89;18.45
16525;BME280;8375;33.594;-117.718;2022-11-20T01:08:56;100490.94;;;18.82;19.35
16525;BME280;8375;33.594;-117.718;2022-11-20T01:11:26;100498.81;;;18.82;18.01
16525;BME280;8375;33.594;-117.718;2022-11-20T01:13:56;100498.00;;;18.73;18.44
16525;BME280;8375;33.594;-117.718;2022-11-20T01:16:26;100500.78;;;18.64;19.77
16525;BME280;8375;33.594;-117.718;2022-11-20T01:18:57;100503.06;;;18.58;18.75
16525;BME280;8375;33.594;-117.718;2022-11-20T01:21:27;100502.28;;;18.58;20.25
16525;BME280;8375;33.594;-117.718;2022-11-20T01:23:59;100511.44;;;18.54;21.45
16525;BME280;8375;33.594;-117.718;2022-11-20T01:26:29;100518.66;;;18.43;19.53
16525;BME280;8375;33.594;-117.718;2022-11-20T01:28:59;100523.91;;;18.35;21.11
16525;BME280;8375;33.594;-117.718;2022-11-20T01:31:30;100533.25;;;18.29;20.33
16525;BME280;8375;33.594;-117.718;2022-11-20T01:34:00;100534.03;;;18.13;20.93
16525;BME280;8375;33.594;-117.718;2022-11-20T01:36:30;100533.56;;;18.18;21.49
16525;BME280;8375;33.594;-117.718;2022-11-20T01:39:02;100531.91;;;18.17;23.31
16525;BME280;8375;33.594;-117.718;2022-11-20T01:41:32;100538.75;;;18.01;22.10
16525;BME280;8375;33.594;-117.718;2022-11-20T01:44:19;100538.00;;;17.83;21.69
16525;BME280;8375;33.594;-117.718;2022-11-20T01:46:54;100535.66;;;17.71;22.30
16525;BME280;8375;33.594;-117.718;2022-11-20T01:49:29;100538.28;;;17.71;25.12
16525;BME280;8375;33.594;-117.718;2022-11-20T01:52:01;100540.50;;;17.58;22.77
16525;BME280;8375;33.594;-117.718;2022-11-20T01:54:35;100539.63;;;17.49;23.12
16525;BME280;8375;33.594;-117.718;2022-11-20T01:57:07;100547.31;;;17.42;21.13
16525;BME280;8375;33.594;-117.718;2022-11-20T01:59:42;100538.72;;;17.32;22.65
16525;BME280;8375;33.594;-117.718;2022-11-20T02:02:12;100550.78;;;17.25;24.79
16525;BME280;8375;33.594;-117.718;2022-11-20T02:04:41;100553.56;;;17.23;21.66
16525;BME280;8375;33.594;-117.718;2022-11-20T02:07:11;100548.91;;;17.17;20.93
16525;BME280;8375;33.594;-117.718;2022-11-20T02:09:41;100563.31;;;17.13;22.32
16525;BME280;8375;33.594;-117.718;2022-11-20T02:12:10;100565.06;;;17.04;22.57
16525;BME280;8375;33.594;-117.718;2022-11-20T02:14:59;100566.34;;;17.00;24.61
16525;BME280;8375;33.594;-117.718;2022-11-20T02:17:26;100563.63;;;16.92;22.81
16525;BME280;8375;33.594;-117.718;2022-11-20T02:19:55;100569.09;;;16.80;23.22
16525;BME280;8375;33.594;-117.718;2022-11-20T02:22:29;100574.94;;;16.74;22.40
16525;BME280;8375;33.594;-117.718;2022-11-20T02:25:02;100579.25;;;16.65;20.77
16525;BME280;8375;33.594;-117.718;2022-11-20T02:27:32;100587.13;;;16.65;22.13
16525;BME280;8375;33.594;-117.718;2022-11-20T02:30:02;100583.78;;;16.73;21.72
16525;BME280;8375;33.594;-117.718;2022-11-20T02:32:35;100587.59;;;16.61;23.52
16525;BME280;8375;33.594;-117.718;2022-11-20T02:35:08;100582.94;;;16.54;22.65
16525;BME280;8375;33.594;-117.718;2022-11-20T02:37:39;100592.34;;;16.47;20.11
16525;BME280;8375;33.594;-117.718;2022-11-20T02:40:11;100592.06;;;16.50;21.24
16525;BME280;8375;33.594;-117.718;2022-11-20T02:42:40;100592.56;;;16.54;20.40
16525;BME280;8375;33.594;-117.718;2022-11-20T02:45:09;100597.72;;;16.46;22.59
16525;BME280;8375;33.594;-117.718;2022-11-20T02:47:37;100592.00;;;16.32;23.21
16525;BME280;8375;33.594;-117.718;2022-11-20T02:50:06;100593.03;;;16.21;23.76
16525;BME280;8375;33.594;-117.718;2022-11-20T02:52:35;100595.56;;;16.13;23.71
16525;BME280;8375;33.594;-117.718;2022-11-20T02:55:04;100596.44;;;16.04;24.17
16525;BME280;8375;33.594;-117.718;2022-11-20T02:57:35;100599.34;;;16.01;23.41
16525;BME280;8375;33.594;-117.718;2022-11-20T03:00:04;100599.75;;;15.86;23.63
16525;BME280;8375;33.594;-117.718;2022-11-20T03:02:33;100600.59;;;15.77;24.46
16525;BME280;8375;33.594;-117.718;2022-11-20T03:05:02;100606.94;;;15.74;25.38
16525;BME280;8375;33.594;-117.718;2022-11-20T03:07:31;100605.59;;;15.60;24.97
16525;BME280;8375;33.594;-117.718;2022-11-20T03:10:00;100603.66;;;15.62;20.92
16525;BME280;8375;33.594;-117.718;2022-11-20T03:12:28;100603.31;;;15.85;19.51
16525;BME280;8375;33.594;-117.718;2022-11-20T03:14:58;100604.47;;;15.92;20.05
16525;BME280;8375;33.594;-117.718;2022-11-20T03:17:27;100607.59;;;15.96;20.14
16525;BME280;8375;33.594;-117.718;2022-11-20T03:19:55;100605.00;;;15.96;21.75
16525;BME280;8375;33.594;-117.718;2022-11-20T03:22:24;100604.72;;;15.89;21.66
16525;BME280;8375;33.594;-117.718;2022-11-20T03:24:53;100609.56;;;15.74;23.25
16525;BME280;8375;33.594;-117.718;2022-11-20T03:27:21;100615.91;;;15.72;21.86
16525;BME280;8375;33.594;-117.718;2022-11-20T03:29:50;100614.69;;;15.66;23.16
16525;BME280;8375;33.594;-117.718;2022-11-20T03:32:20;100620.75;;;15.57;23.92
16525;BME280;8375;33.594;-117.718;2022-11-20T03:34:49;100627.66;;;15.58;25.87
16525;BME280;8375;33.594;-117.718;2022-11-20T03:37:18;100635.22;;;15.51;23.54
16525;BME280;8375;33.594;-117.718;2022-11-20T03:39:46;100632.19;;;15.46;24.00
16525;BME280;8375;33.594;-117.718;2022-11-20T03:42:15;100641.16;;;15.33;24.42
16525;BME280;8375;33.594;-117.718;2022-11-20T03:44:57;100634.53;;;15.29;24.73
16525;BME280;8375;33.594;-117.718;2022-11-20T03:47:27;100635.66;;;15.17;24.55
16525;BME280;8375;33.594;-117.718;2022-11-20T03:49:56;100629.75;;;15.05;23.75
16525;BME280;8375;33.594;-117.718;2022-11-20T03:52:24;100631.41;;;15.06;24.15
16525;BME280;8375;33.594;-117.718;2022-11-20T03:54:53;100641.72;;;14.98;25.76
16525;BME280;8375;33.594;-117.718;2022-11-20T03:57:21;100638.53;;;14.94;24.65
16525;BME280;8375;33.594;-117.718;2022-11-20T03:59:50;100633.41;;;14.82;25.88
16525;BME280;8375;33.594;-117.718;2022-11-20T04:02:18;100630.97;;;14.81;25.25
16525;BME280;8375;33.594;-117.718;2022-11-20T04:04:49;100631.06;;;14.70;25.09
16525;BME280;8375;33.594;-117.718;2022-11-20T04:07:17;100635.97;;;14.63;25.08
16525;BME280;8375;33.594;-117.718;2022-11-20T04:09:46;100636.91;;;14.62;27.30
16525;BME280;8375;33.594;-117.718;2022-11-20T04:12:14;100645.28;;;14.56;28.11
16525;BME280;8375;33.594;-117.718;2022-11-20T04:14:43;100641.63;;;14.27;27.32
16525;BME280;8375;33.594;-117.718;2022-11-20T04:17:12;100639.53;;;13.90;28.75
16525;BME280;8375;33.594;-117.718;2022-11-20T04:19:43;100640.63;;;13.66;30.02
16525;BME280;8375;33.594;-117.718;2022-11-20T04:22:14;100646.63;;;13.57;29.86
16525;BME280;8375;33.594;-117.718;2022-11-20T04:24:43;100639.59;;;13.57;29.91
16525;BME280;8375;33.594;-117.718;2022-11-20T04:27:13;100652.59;;;13.47;30.66
16525;BME280;8375;33.594;-117.718;2022-11-20T04:29:44;100650.09;;;13.46;29.41
16525;BME280;8375;33.594;-117.718;2022-11-20T04:32:13;100652.22;;;13.41;29.15
16525;BME280;8375;33.594;-117.718;2022-11-20T04:34:41;100647.78;;;13.20;30.82
16525;BME280;8375;33.594;-117.718;2022-11-20T04:37:10;100661.44;;;13.12;30.30
16525;BME280;8375;33.594;-117.718;2022-11-20T04:39:41;100667.53;;;13.01;28.79
16525;BME280;8375;33.594;-117.718;2022-11-20T04:42:10;100669.09;;;12.70;29.82
16525;BME280;8375;33.594;-117.718;2022-11-20T04:44:57;100673.00;;;12.87;32.02
16525;BME280;8375;33.594;-117.718;2022-11-20T04:47:26;100675.59;;;12.87;30.14
16525;BME280;8375;33.594;-117.718;2022-11-20T04:49:55;100681.53;;;12.89;31.50
16525;BME280;8375;33.594;-117.718;2022-11-20T04:52:23;100678.06;;;12.88;31.91
16525;BME280;8375;33.594;-117.718;2022-11-20T04:54:53;100679.50;;;12.81;31.39
16525;BME280;8375;33.594;-117.718;2022-11-20T04:57:22;100687.47;;;12.80;32.42
16525;BME280;8375;33.594;-117.718;2022-11-20T04:59:51;100675.63;;;12.64;32.03
16525;BME280;8375;33.594;-117.718;2022-11-20T05:02:22;100680.47;;;12.57;32.00
16525;BME280;8375;33.594;-117.718;2022-11-20T05:04:52;100688.19;;;12.59;30.47
16525;BME280;8375;33.594;-117.718;2022-11-20T05:07:22;100696.34;;;12.66;30.51
16525;BME280;8375;33.594;-117.718;2022-11-20T05:09:53;100701.69;;;12.53;30.75
16525;BME280;8375;33.594;-117.718;2022-11-20T05:12:24;100689.72;;;12.27;32.46
16525;BME280;8375;33.594;-117.718;2022-11-20T05:14:54;100695.75;;;12.28;31.82
16525;BME280;8375;33.594;-117.718;2022-11-20T05:17:23;100688.53;;;12.20;31.98
16525;BME280;8375;33.594;-117.718;2022-11-20T05:19:52;100689.38;;;12.21;31.25
16525;BME280;8375;33.594;-117.718;2022-11-20T05:22:22;100691.47;;;12.15;30.99
16525;BME280;8375;33.594;-117.718;2022-11-20T05:24:54;100694.56;;;11.85;31.54
16525;BME280;8375;33.594;-117.718;2022-11-20T05:27:23;100692.69;;;11.87;31.89
16525;BME280;8375;33.594;-117.718;2022-11-20T05:29:52;100706.00;;;11.71;34.22
16525;BME280;8375;33.594;-117.718;2022-11-20T05:32:23;100693.97;;;11.45;33.91
16525;BME280;8375;33.594;-117.718;2022-11-20T05:34:54;100689.28;;;11.26;33.07
16525;BME280;8375;33.594;-117.718;2022-11-20T05:37:26;100690.72;;;11.30;33.04
16525;BME280;8375;33.594;-117.718;2022-11-20T05:40:00;100690.94;;;11.27;33.03
16525;BME280;8375;33.594;-117.718;2022-11-20T05:42:31;100693.09;;;11.34;33.70
16525;BME280;8375;33.594;-117.718;2022-11-20T05:45:00;100697.84;;;11.40;32.30
16525;BME280;8375;33.594;-117.718;2022-11-20T05:47:31;100689.84;;;11.43;32.47
16525;BME280;8375;33.594;-117.718;2022-11-20T05:50:00;100703.56;;;11.45;32.58
16525;BME280;8375;33.594;-117.718;2022-11-20T05:52:29;100704.59;;;11.18;33.74
16525;BME280;8375;33.594;-117.718;2022-11-20T05:54:59;100709.66;;;11.20;33.13
16525;BME280;8375;33.594;-117.718;2022-11-20T05:57:28;100704.25;;;10.98;35.26
16525;BME280;8375;33.594;-117.718;2022-11-20T05:59:57;100708.94;;;10.80;36.61
16525;BME280;8375;33.594;-117.718;2022-11-20T06:02:25;100701.59;;;10.74;36.98
16525;BME280;8375;33.594;-117.718;2022-11-20T06:04:54;100705.03;;;10.75;33.91
16525;BME280;8375;33.594;-117.718;2022-11-20T06:07:22;100710.66;;;10.68;34.11
16525;BME280;8375;33.594;-117.718;2022-11-20T06:09:52;100711.66;;;10.79;33.32
16525;BME280;8375;33.594;-117.718;2022-11-20T06:12:24;100707.28;;;10.79;34.58
16525;BME280;8375;33.594;-117.718;2022-11-20T06:14:53;100708.22;;;10.78;34.24
16525;BME280;8375;33.594;-117.718;2022-11-20T06:17:22;100704.09;;;10.76;34.79
16525;BME280;8375;33.594;-117.718;2022-11-20T06:19:51;100706.56;;;10.77;35.58
16525;BME280;8375;33.594;-117.718;2022-11-20T06:22:19;100708.66;;;10.72;34.47
16525;BME280;8375;33.594;-117.718;2022-11-20T06:24:48;100706.28;;;10.69;34.16
16525;BME280;8375;33.594;-117.718;2022-11-20T06:27:17;100707.31;;;10.53;34.16
16525;BME280;8375;33.594;-117.718;2022-11-20T06:29:47;100708.66;;;10.59;34.02
16525;BME280;8375;33.594;-117.718;2022-11-20T06:32:16;100709.59;;;10.58;34.92
16525;BME280;8375;33.594;-117.718;2022-11-20T06:34:44;100704.41;;;10.58;36.73
16525;BME280;8375;33.594;-117.718;2022-11-20T06:37:13;100707.31;;;10.53;36.20
16525;BME280;8375;33.594;-117.718;2022-11-20T06:39:41;100708.56;;;10.48;35.45
16525;BME280;8375;33.594;-117.718;2022-11-20T06:42:10;100705.97;;;10.35;38.11
16525;BME280;8375;33.594;-117.718;2022-11-20T06:44:38;100708.31;;;10.25;38.52
16525;BME280;8375;33.594;-117.718;2022-11-20T06:47:09;100708.09;;;10.02;38.76
16525;BME280;8375;33.594;-117.718;2022-11-20T06:49:37;100720.94;;;9.91;38.63
16525;BME280;8375;33.594;-117.718;2022-11-20T06:52:06;100718.56;;;9.88;39.40
16525;BME280;8375;33.594;-117.718;2022-11-20T06:54:34;100719.28;;;9.77;40.12
16525;BME280;8375;33.594;-117.718;2022-11-20T06:57:03;100721.97;;;9.75;39.75
16525;BME280;8375;33.594;-117.718;2022-11-20T06:59:32;100723.19;;;9.69;38.69
16525;BME280;8375;33.594;-117.718;2022-11-20T07:02:01;100725.16;;;9.66;37.85
16525;BME280;8375;33.594;-117.718;2022-11-20T07:04:31;100728.88;;;9.62;38.75
16525;BME280;8375;33.594;-117.718;2022-11-20T07:06:59;100724.81;;;9.58;38.71
16525;BME280;8375;33.594;-117.718;2022-11-20T07:09:28;100719.09;;;9.52;38.19
16525;BME280;8375;33.594;-117.718;2022-11-20T07:11:56;100717.34;;;9.53;37.49
16525;BME280;8375;33.594;-117.718;2022-11-20T07:14:25;100724.72;;;9.59;36.58
16525;BME280;8375;33.594;-117.718;2022-11-20T07:16:54;100724.72;;;9.59;37.93
16525;BME280;8375;33.594;-117.718;2022-11-20T07:19:22;100731.16;;;9.39;39.96
16525;BME280;8375;33.594;-117.718;2022-11-20T07:21:52;100740.06;;;9.35;40.03
16525;BME280;8375;33.594;-117.718;2022-11-20T07:24:21;100733.06;;;9.22;39.94
16525;BME280;8375;33.594;-117.718;2022-11-20T07:26:49;100730.88;;;9.02;38.88
16525;BME280;8375;33.594;-117.718;2022-11-20T07:29:18;100725.50;;;9.05;38.44
16525;BME280;8375;33.594;-117.718;2022-11-20T07:31:47;100737.22;;;9.25;44.83
16525;BME280;8375;33.594;-117.718;2022-11-20T07:34:15;100740.28;;;9.17;43.31
16525;BME280;8375;33.594;-117.718;2022-11-20T07:36:44;100741.41;;;9.13;42.07
16525;BME280;8375;33.594;-117.718;2022-11-20T07:39:14;100736.06;;;9.02;42.14
16525;BME280;8375;33.594;-117.718;2022-11-20T07:41:42;100734.22;;;8.89;42.32
16525;BME280;8375;33.594;-117.718;2022-11-20T07:44:11;100739.22;;;8.92;42.00
16525;BME280;8375;33.594;-117.718;2022-11-20T07:46:40;100732.94;;;8.97;40.67
16525;BME280;8375;33.594;-117.718;2022-11-20T07:49:08;100723.69;;;8.92;40.79
16525;BME280;8375;33.594;-117.718;2022-11-20T07:51:37;100720.63;;;9.00;40.64
16525;BME280;8375;33.594;-117.718;2022-11-20T07:54:06;100723.28;;;9.13;44.60
16525;BME280;8375;33.594;-117.718;2022-11-20T07:56:36;100741.22;;;9.16;42.59
16525;BME280;8375;33.594;-117.718;2022-11-20T07:59:04;100724.16;;;8.99;42.76
16525;BME280;8375;33.594;-117.718;2022-11-20T08:01:33;100731.38;;;8.79;43.79
16525;BME280;8375;33.594;-117.718;2022-11-20T08:04:02;100727.41;;;8.74;41.95
16525;BME280;8375;33.594;-117.718;2022-11-20T08:06:31;100731.09;;;8.70;41.93
16525;BME280;8375;33.594;-117.718;2022-11-20T08:09:00;100736.38;;;8.68;41.85
16525;BME280;8375;33.594;-117.718;2022-11-20T08:11:28;100728.09;;;8.47;39.49
16525;BME280;8375;33.594;-117.718;2022-11-20T08:14:15;100726.56;;;8.59;43.60
16525;BME280;8375;33.594;-117.718;2022-11-20T08:16:44;100729.34;;;8.56;42.90
16525;BME280;8375;33.594;-117.718;2022-11-20T08:19:14;100739.56;;;8.43;43.89
16525;BME280;8375;33.594;-117.718;2022-11-20T08:21:44;100736.41;;;8.37;42.33
16525;BME280;8375;33.594;-117.718;2022-11-20T08:24:13;100734.19;;;8.31;42.50
16525;BME280;8375;33.594;-117.718;2022-11-20T08:26:41;100731.41;;;8.20;43.00
16525;BME280;8375;33.594;-117.718;2022-11-20T08:29:10;100729.56;;;8.22;43.57
16525;BME280;8375;33.594;-117.718;2022-11-20T08:31:40;100733.97;;;8.20;43.54
16525;BME280;8375;33.594;-117.718;2022-11-20T08:34:09;100733.06;;;8.21;43.50
16525;BME280;8375;33.594;-117.718;2022-11-20T08:36:37;100727.78;;;8.08;44.67
16525;BME280;8375;33.594;-117.718;2022-11-20T08:39:06;100722.69;;;8.06;45.12
16525;BME280;8375;33.594;-117.718;2022-11-20T08:41:34;100718.34;;;8.07;43.05
16525;BME280;8375;33.594;-117.718;2022-11-20T08:44:05;100719.91;;;8.10;43.19
16525;BME280;8375;33.594;-117.718;2022-11-20T08:46:35;100725.59;;;8.16;45.67
16525;BME280;8375;33.594;-117.718;2022-11-20T08:49:07;100722.88;;;8.18;50.57
16525;BME280;8375;33.594;-117.718;2022-11-20T08:51:36;100714.94;;;8.06;50.40
16525;BME280;8375;33.594;-117.718;2022-11-20T08:54:06;100720.63;;;7.97;47.55
16525;BME280;8375;33.594;-117.718;2022-11-20T08:56:34;100735.41;;;7.95;44.63
16525;BME280;8375;33.594;-117.718;2022-11-20T08:59:03;100729.47;;;7.93;42.66
16525;BME280;8375;33.594;-117.718;2022-11-20T09:01:32;100734.66;;;7.93;47.55
16525;BME280;8375;33.594;-117.718;2022-11-20T09:04:01;100730.53;;;7.74;46.10
16525;BME280;8375;33.594;-117.718;2022-11-20T09:06:32;100730.88;;;7.68;46.39
16525;BME280;8375;33.594;-117.718;2022-11-20T09:09:01;100734.78;;;7.59;47.12
16525;BME280;8375;33.594;-117.718;2022-11-20T09:11:29;100727.53;;;7.66;48.44
16525;BME280;8375;33.594;-117.718;2022-11-20T09:13:58;100725.72;;;7.68;46.78
16525;BME280;8375;33.594;-117.718;2022-11-20T09:16:26;100727.41;;;7.84;48.97
16525;BME280;8375;33.594;-117.718;2022-11-20T09:18:55;100726.69;;;7.82;46.03
16525;BME280;8375;33.594;-117.718;2022-11-20T09:21:23;100723.16;;;7.83;43.50
16525;BME280;8375;33.594;-117.718;2022-11-20T09:23:53;100725.97;;;7.94;44.91
16525;BME280;8375;33.594;-117.718;2022-11-20T09:26:22;100731.28;;;8.07;44.39
16525;BME280;8375;33.594;-117.718;2022-11-20T09:28:51;100732.41;;;8.17;47.30
16525;BME280;8375;33.594;-117.718;2022-11-20T09:31:22;100738.34;;;8.19;50.32
16525;BME280;8375;33.594;-117.718;2022-11-20T09:33:52;100731.75;;;8.14;53.14
16525;BME280;8375;33.594;-117.718;2022-11-20T09:36:21;100727.25;;;7.87;48.67
16525;BME280;8375;33.594;-117.718;2022-11-20T09:38:49;100733.53;;;7.67;48.63
16525;BME280;8375;33.594;-117.718;2022-11-20T09:41:46;100741.38;;;7.65;51.94
16525;BME280;8375;33.594;-117.718;2022-11-20T09:44:30;100739.78;;;7.62;48.49
16525;BME280;8375;33.594;-117.718;2022-11-20T09:47:08;100739.66;;;7.49;48.60
16525;BME280;8375;33.594;-117.718;2022-11-20T09:49:51;100737.56;;;7.40;47.72
16525;BME280;8375;33.594;-117.718;2022-11-20T09:52:31;100735.81;;;7.57;47.71
16525;BME280;8375;33.594;-117.718;2022-11-20T09:55:02;100732.13;;;7.61;46.55
16525;BME280;8375;33.594;-117.718;2022-11-20T09:57:36;100729.91;;;7.55;46.45
16525;BME280;8375;33.594;-117.718;2022-11-20T10:00:10;100732.38;;;7.72;48.83
16525;BME280;8375;33.594;-117.718;2022-11-20T10:02:45;100741.22;;;7.68;46.91
16525;BME280;8375;33.594;-117.718;2022-11-20T10:05:18;100735.13;;;7.69;46.79
16525;BME280;8375;33.594;-117.718;2022-11-20T10:07:52;100731.69;;;7.69;45.70
16525;BME280;8375;33.594;-117.718;2022-11-20T10:10:31;100733.63;;;7.65;47.17
16525;BME280;8375;33.594;-117.718;2022-11-20T10:13:14;100730.31;;;7.63;46.51
16525;BME280;8375;33.594;-117.718;2022-11-20T10:15:51;100729.97;;;7.69;48.18
16525;BME280;8375;33.594;-117.718;2022-11-20T10:18:31;100729.38;;;7.64;43.27
16525;BME280;8375;33.594;-117.718;2022-11-20T10:21:11;100728.41;;;7.81;43.60
16525;BME280;8375;33.594;-117.718;2022-11-20T10:23:56;100734.16;;;7.86;43.86
16525;BME280;8375;33.594;-117.718;2022-11-20T10:26:37;100731.19;;;7.78;43.91
16525;BME280;8375;33.594;-117.718;2022-11-20T10:29:12;100729.63;;;7.75;44.84
16525;BME280;8375;33.594;-117.718;2022-11-20T10:31:42;100728.28;;;7.68;44.29
16525;BME280;8375;33.594;-117.718;2022-11-20T10:34:19;100727.84;;;7.76;44.47
16525;BME280;8375;33.594;-117.718;2022-11-20T10:36:52;100725.19;;;7.77;45.34
16525;BME280;8375;33.594;-117.718;2022-11-20T10:39:29;100727.94;;;7.74;46.93
16525;BME280;8375;33.594;-117.718;2022-11-20T10:42:00;100726.56;;;7.83;48.04
16525;BME280;8375;33.594;-117.718;2022-11-20T10:44:30;100722.63;;;7.61;47.87
16525;BME280;8375;33.594;-117.718;2022-11-20T10:47:17;100726.88;;;7.62;46.46
16525;BME280;8375;33.594;-117.718;2022-11-20T10:49:47;100730.47;;;7.60;46.98
16525;BME280;8375;33.594;-117.718;2022-11-20T10:52:23;100726.63;;;7.51;44.95
16525;BME280;8375;33.594;-117.718;2022-11-20T10:55:00;100732.13;;;7.61;46.62
16525;BME280;8375;33.594;-117.718;2022-11-20T10:57:48;100730.22;;;7.32;48.74
16525;BME280;8375;33.594;-117.718;2022-11-20T11:00:22;100715.06;;;7.26;47.50
16525;BME280;8375;33.594;-117.718;2022-11-20T11:02:52;100721.22;;;7.40;48.10
16525;BME280;8375;33.594;-117.718;2022-11-20T11:05:33;100716.56;;;7.46;45.93
16525;BME280;8375;33.594;-117.718;2022-11-20T11:08:05;100730.66;;;7.57;47.76
16525;BME280;8375;33.594;-117.718;2022-11-20T11:10:41;100721.06;;;7.43;51.62
16525;BME280;8375;33.594;-117.718;2022-11-20T11:13:20;100728.75;;;7.12;51.00
16525;BME280;8375;33.594;-117.718;2022-11-20T11:15:51;100727.81;;;7.29;56.43
16525;BME280;8375;33.594;-117.718;2022-11-20T11:18:27;100726.03;;;6.82;54.15
16525;BME280;8375;33.594;-117.718;2022-11-20T11:20:57;100735.97;;;6.56;53.95
16525;BME280;8375;33.594;-117.718;2022-11-20T11:23:31;100735.00;;;6.58;55.89
16525;BME280;8375;33.594;-117.718;2022-11-20T11:26:02;100729.91;;;6.57;55.32
16525;BME280;8375;33.594;-117.718;2022-11-20T11:28:31;100731.03;;;6.85;61.02
16525;BME280;8375;33.594;-117.718;2022-11-20T11:31:01;100728.97;;;6.92;54.47
16525;BME280;8375;33.594;-117.718;2022-11-20T11:33:31;100738.56;;;7.05;51.68
16525;BME280;8375;33.594;-117.718;2022-11-20T11:36:02;100732.38;;;6.92;53.33
16525;BME280;8375;33.594;-117.718;2022-11-20T11:38:35;100728.78;;;6.79;53.24
16525;BME280;8375;33.594;-117.718;2022-11-20T11:41:05;100735.13;;;6.73;54.38
16525;BME280;8375;33.594;-117.718;2022-11-20T11:43:36;100731.94;;;6.68;54.95
16525;BME280;8375;33.594;-117.718;2022-11-20T11:46:29;100726.72;;;6.85;51.54
16525;BME280;8375;33.594;-117.718;2022-11-20T11:49:00;100730.88;;;6.88;50.61
16525;BME280;8375;33.594;-117.718;2022-11-20T11:51:34;100714.25;;;6.94;55.36
16525;BME280;8375;33.594;-117.718;2022-11-20T11:54:10;100714.34;;;7.08;54.86
16525;BME280;8375;33.594;-117.718;2022-11-20T11:56:42;100718.69;;;7.24;51.16
16525;BME280;8375;33.594;-117.718;2022-11-20T11:59:14;100721.56;;;7.33;51.23
16525;BME280;8375;33.594;-117.718;2022-11-20T12:01:50;100741.00;;;7.25;52.80
16525;BME280;8375;33.594;-117.718;2022-11-20T12:04:36;100750.97;;;6.99;51.77
16525;BME280;8375;33.594;-117.718;2022-11-20T12:07:12;100743.06;;;6.68;52.75
16525;BME280;8375;33.594;-117.718;2022-11-20T12:09:49;100749.41;;;6.63;53.51
16525;BME280;8375;33.594;-117.718;2022-11-20T12:12:22;100742.19;;;6.52;56.40
16525;BME280;8375;33.594;-117.718;2022-11-20T12:14:54;100754.50;;;6.29;54.33
16525;BME280;8375;33.594;-117.718;2022-11-20T12:17:26;100736.88;;;6.04;56.04
16525;BME280;8375;33.594;-117.718;2022-11-20T12:19:54;100731.44;;;5.91;55.57
16525;BME280;8375;33.594;-117.718;2022-11-20T12:22:30;100738.19;;;5.93;55.90
16525;BME280;8375;33.594;-117.718;2022-11-20T12:25:06;100750.41;;;6.07;56.38
16525;BME280;8375;33.594;-117.718;2022-11-20T12:27:44;100745.34;;;6.06;57.47
16525;BME280;8375;33.594;-117.718;2022-11-20T12:30:20;100758.44;;;6.01;57.21
16525;BME280;8375;33.594;-117.718;2022-11-20T12:33:13;100746.06;;;5.90;58.24
16525;BME280;8375;33.594;-117.718;2022-11-20T12:35:57;100755.47;;;5.91;58.09
16525;BME280;8375;33.594;-117.718;2022-11-20T12:38:51;100759.41;;;5.81;56.50
16525;BME280;8375;33.594;-117.718;2022-11-20T12:41:31;100746.44;;;5.82;56.56
16525;BME280;8375;33.594;-117.718;2022-11-20T12:44:33;100760.69;;;5.90;56.70
16525;BME280;8375;33.594;-117.718;2022-11-20T12:47:31;100761.44;;;5.92;58.41
16525;BME280;8375;33.594;-117.718;2022-11-20T12:50:16;100767.16;;;5.98;57.47
16525;BME280;8375;33.594;-117.718;2022-11-20T12:52:52;100766.13;;;6.20;54.58
16525;BME280;8375;33.594;-117.718;2022-11-20T12:55:28;100773.47;;;6.10;54.92
16525;BME280;8375;33.594;-117.718;2022-11-20T12:58:08;100766.34;;;6.33;55.29